Time;durP1;ratioP1;P1;durP2;ratioP2;P2;SDS_P1;SDS_P2;PMS_P1;PMS_P2;Temp;Humidity;BMP_temperature;BMP_pressure;BME280_temperature;BME280_humidity;BME280_pressure;Samples;Min_cycle;Max_cycle;Signal;HPM_P1;HPM_P2
2024/01/28 00:00:11;;;;;;;;;;;;;;;;;;5036731;28;20401;-23
2024/01/28 00:02:37;;;;;;;;;;;;;;;;;;5037645;28;19917;-23
2024/01/28 00:05:03;;;;;;;;;;;;;;;;;;5037543;28;19913;-23
2024/01/28 00:07:29;;;;;;;;;;;;;;;;;;5037720;28;20340;-23
2024/01/28 00:09:55;;;;;;;;;;;;;;;;;;5037408;28;19913;-25
2024/01/28 00:12:21;;;;;;;;;;;;;;;;;;5037414;28;19952;-23
2024/01/28 00:14:47;;;;;;;;;;;;;;;;;;5037485;28;19909;-23
2024/01/28 00:17:13;;;;;;;;;;;;;;;;;;5037347;28;19932;-24
2024/01/28 00:19:39;;;;;;;;;;;;;;;;;;5037582;28;19913;-24
2024/01/28 00:22:05;;;;;;;;;;;;;;;;;;5037251;28;19958;-24
2024/01/28 00:24:31;;;;;;;;;;;;;;;;;;5036292;28;19916;-24
2024/01/28 00:26:57;;;;;;;;;;;;;;;;;;5037202;28;19909;-24
2024/01/28 00:29:29;;;;;;;;;;;;;;;;;;5037089;28;19913;-24
2024/01/28 00:31:55;;;;;;;;;;;;;;;;;;5036574;28;19909;-24
2024/01/28 00:34:21;;;;;;;;;;;;;;;;;;5037080;28;20367;-24
2024/01/28 00:36:48;;;;;;;;;;;;;;;;;;5037018;28;19909;-24
2024/01/28 00:39:14;;;;;;;;;;;;;;;;;;5036935;28;19909;-24
2024/01/28 00:41:39;;;;;;;;;;;;;;;;;;5037189;28;19913;-24
2024/01/28 00:44:05;;;;;;;;;;;;;;;;;;5036797;28;20359;-24
2024/01/28 00:46:34;;;;;;;;;;;;;;;;;;5036821;28;20259;-24
2024/01/28 00:49:03;;;;;;;;;;;;;;;;;;5036781;28;19913;-24
2024/01/28 00:51:29;;;;;;;;;;;;;;;;;;5036749;28;19936;-24
2024/01/28 00:53:56;;;;;;;;;;;;;;;;;;5036619;28;19955;-24
2024/01/28 00:56:22;;;;;;;;;;;;;;;;;;5036935;28;19957;-24
2024/01/28 00:58:48;;;;;;;;;;;;;;;;;;5036567;28;19909;-24
2024/01/28 01:01:14;;;;;;;;;;;;;;;;;;5036569;28;19983;-23
2024/01/28 01:03:40;;;;;;;;;;;;;;;;;;5036260;28;19925;-24
2024/01/28 01:06:06;;;;;;;;;;;;;;;;;;5035420;28;19963;-24
2024/01/28 01:08:32;;;;;;;;;;;;;;;;;;5036657;28;20371;-24
2024/01/28 01:10:58;;;;;;;;;;;;;;;;;;5036381;28;19910;-24
2024/01/28 01:13:25;;;;;;;;;;;;;;;;;;5036519;28;19909;-24
2024/01/28 01:15:51;;;;;;;;;;;;;;;;;;5036295;28;19909;-24
2024/01/28 01:18:17;;;;;;;;;;;;;;;;;;5036547;28;19916;-24
2024/01/28 01:20:43;;;;;;;;;;;;;;;;;;5036148;28;19951;-24
2024/01/28 01:23:09;;;;;;;;;;;;;;;;;;5036318;28;20337;-24
2024/01/28 01:25:35;;;;;;;;;;;;;;;;;;5035070;28;19910;-24
2024/01/28 01:28:01;;;;;;;;;;;;;;;;;;5036036;28;20355;-23
2024/01/28 01:30:27;;;;;;;;;;;;;;;;;;5035945;28;19940;-24
2024/01/28 01:32:53;;;;;;;;;;;;;;;;;;5035881;28;20285;-23
2024/01/28 01:35:20;;;;;;;;;;;;;;;;;;5034918;28;20260;-24
2024/01/28 01:37:46;;;;;;;;;;;;;;;;;;5035870;28;20233;-24
2024/01/28 01:40:14;;;;;;;;;;;;;;;;;;5035816;28;19909;-24
2024/01/28 01:42:40;;;;;;;;;;;;;;;;;;5035945;28;19944;-24
2024/01/28 01:45:06;;;;;;;;;;;;;;;;;;5035938;28;19909;-24
2024/01/28 01:47:32;;;;;;;;;;;;;;;;;;5035937;28;20332;-24
2024/01/28 01:49:58;;;;;;;;;;;;;;;;;;5035580;28;19975;-24
2024/01/28 01:52:24;;;;;;;;;;;;;;;;;;5035512;28;20363;-24
2024/01/28 01:54:50;;;;;;;;;;;;;;;;;;5035783;28;20344;-24
2024/01/28 01:57:16;;;;;;;;;;;;;;;;;;5035518;28;19920;-24
2024/01/28 01:59:42;;;;;;;;;;;;;;;;;;5035717;28;19919;-24
2024/01/28 02:02:08;;;;;;;;;;;;;;;;;;5035371;28;20272;-24
2024/01/28 02:04:34;;;;;;;;;;;;;;;;;;5035175;28;19921;-24
2024/01/28 02:07:00;;;;;;;;;;;;;;;;;;5035322;28;19912;-24
2024/01/28 02:09:26;;;;;;;;;;;;;;;;;;5035205;28;19931;-24
2024/01/28 02:11:52;;;;;;;;;;;;;;;;;;5035172;28;19909;-23
2024/01/28 02:14:18;;;;;;;;;;;;;;;;;;5035706;28;19923;-24
2024/01/28 02:16:44;;;;;;;;;;;;;;;;;;5035185;28;19913;-24
2024/01/28 02:19:10;;;;;;;;;;;;;;;;;;5035132;28;20260;-23
2024/01/28 02:21:36;;;;;;;;;;;;;;;;;;5035072;28;19909;-24
2024/01/28 02:24:01;;;;;;;;;;;;;;;;;;5035062;28;19920;-24
2024/01/28 02:26:27;;;;;;;;;;;;;;;;;;5035049;28;20245;-24
2024/01/28 02:28:53;;;;;;;;;;;;;;;;;;5033965;28;19914;-24
2024/01/28 02:31:19;;;;;;;;;;;;;;;;;;5035226;28;19925;-24
2024/01/28 02:33:45;;;;;;;;;;;;;;;;;;5034808;28;19909;-23
2024/01/28 02:36:11;;;;;;;;;;;;;;;;;;5035956;28;20228;-24
2024/01/28 02:38:37;;;;;;;;;;;;;;;;;;5034904;28;19916;-24
2024/01/28 02:41:03;;;;;;;;;;;;;;;;;;5034835;28;19964;-24
2024/01/28 02:43:29;;;;;;;;;;;;;;;;;;5034788;28;19948;-24
2024/01/28 02:45:55;;;;;;;;;;;;;;;;;;5034973;28;19939;-24
2024/01/28 02:48:21;;;;;;;;;;;;;;;;;;5034666;28;19909;-24
2024/01/28 02:50:47;;;;;;;;;;;;;;;;;;5035039;28;20296;-24
2024/01/28 02:53:14;;;;;;;;;;;;;;;;;;5034874;28;19913;-24
2024/01/28 02:55:40;;;;;;;;;;;;;;;;;;5037411;28;19909;-24
2024/01/28 02:58:06;;;;;;;;;;;;;;;;;;5041562;28;20352;-24
2024/01/28 03:00:35;;;;;;;;;;;;;;;;;;5041220;28;19916;-24
2024/01/28 03:03:01;;;;;;;;;;;;;;;;;;5040994;28;19920;-24
2024/01/28 03:05:27;;;;;;;;;;;;;;;;;;5041140;28;19935;-24
2024/01/28 03:07:53;;;;;;;;;;;;;;;;;;5041196;28;19916;-24
2024/01/28 03:10:19;;;;;;;;;;;;;;;;;;5041144;28;19959;-24
2024/01/28 03:12:50;;;;;;;;;;;;;;;;;;5040660;28;20205;-24
2024/01/28 03:15:16;;;;;;;;;;;;;;;;;;5041226;28;19914;-24
2024/01/28 03:17:42;;;;;;;;;;;;;;;;;;5041406;28;19909;-24
2024/01/28 03:20:08;;;;;;;;;;;;;;;;;;5041368;28;20332;-24
2024/01/28 03:22:34;;;;;;;;;;;;;;;;;;5041253;28;20300;-24
2024/01/28 03:25:00;;;;;;;;;;;;;;;;;;5041030;28;19909;-24
2024/01/28 03:27:26;;;;;;;;;;;;;;;;;;5040029;28;20273;-24
2024/01/28 03:29:52;;;;;;;;;;;;;;;;;;5041271;28;19945;-24
2024/01/28 03:32:18;;;;;;;;;;;;;;;;;;5040879;28;19931;-24
2024/01/28 03:34:44;;;;;;;;;;;;;;;;;;5040957;28;19916;-24
2024/01/28 03:37:10;;;;;;;;;;;;;;;;;;5041214;28;20233;-24
2024/01/28 03:39:36;;;;;;;;;;;;;;;;;;5040865;28;20007;-24
2024/01/28 03:42:03;;;;;;;;;;;;;;;;;;5041068;28;19925;-24
2024/01/28 03:44:29;;;;;;;;;;;;;;;;;;5041184;28;19934;-24
2024/01/28 03:46:55;;;;;;;;;;;;;;;;;;5040854;28;20333;-24
2024/01/28 03:49:21;;;;;;;;;;;;;;;;;;5039762;28;19923;-24
2024/01/28 03:51:47;;;;;;;;;;;;;;;;;;5041082;28;19959;-24
2024/01/28 03:54:13;;;;;;;;;;;;;;;;;;5040769;28;20008;-24
2024/01/28 03:56:40;;;;;;;;;;;;;;;;;;5041015;28;19909;-23
2024/01/28 03:59:06;;;;;;;;;;;;;;;;;;5040709;28;20328;-24
2024/01/28 04:01:32;;;;;;;;;;;;;;;;;;5039775;28;19970;-23
2024/01/28 04:03:58;;;;;;;;;;;;;;;;;;5040528;28;20344;-23
2024/01/28 04:06:24;;;;;;;;;;;;;;;;;;5039860;28;19916;-24
2024/01/28 04:08:52;;;;;;;;;;;;;;;;;;5036663;28;19975;-24
2024/01/28 04:11:18;;;;;;;;;;;;;;;;;;5037531;28;19913;-24
2024/01/28 04:13:44;;;;;;;;;;;;;;;;;;5037417;28;19920;-24
2024/01/28 04:16:10;;;;;;;;;;;;;;;;;;5037771;28;20277;-24
2024/01/28 04:18:36;;;;;;;;;;;;;;;;;;5037417;28;19909;-23
2024/01/28 04:21:02;;;;;;;;;;;;;;;;;;5037333;28;19909;-24
2024/01/28 04:23:28;;;;;;;;;;;;;;;;;;5037532;28;19909;-24
2024/01/28 04:25:54;;;;;;;;;;;;;;;;;;5036335;28;20233;-24
2024/01/28 04:28:23;;;;;;;;;;;;;;;;;;5037184;28;19910;-24
2024/01/28 04:30:49;;;;;;;;;;;;;;;;;;5037265;28;20310;-24
2024/01/28 04:33:15;;;;;;;;;;;;;;;;;;5037087;28;19909;-24
2024/01/28 04:35:41;;;;;;;;;;;;;;;;;;5037064;28;19910;-24
2024/01/28 04:38:07;;;;;;;;;;;;;;;;;;5037008;28;20008;-24
2024/01/28 04:40:33;;;;;;;;;;;;;;;;;;5035961;28;19924;-24
2024/01/28 04:42:59;;;;;;;;;;;;;;;;;;5036917;28;19917;-24
2024/01/28 04:45:25;;;;;;;;;;;;;;;;;;5036922;28;19920;-24
2024/01/28 04:47:51;;;;;;;;;;;;;;;;;;5035840;28;20412;-24
2024/01/28 04:50:17;;;;;;;;;;;;;;;;;;5037039;28;19913;-24
2024/01/28 04:52:43;;;;;;;;;;;;;;;;;;5036953;28;20256;-24
2024/01/28 04:55:09;;;;;;;;;;;;;;;;;;5035744;28;19910;-24
2024/01/28 04:57:35;;;;;;;;;;;;;;;;;;5036628;28;19909;-23
2024/01/28 05:00:01;;;;;;;;;;;;;;;;;;5036646;28;20229;-24
2024/01/28 05:02:27;;;;;;;;;;;;;;;;;;5036368;28;19909;-24
2024/01/28 05:04:53;;;;;;;;;;;;;;;;;;5035566;28;19977;-24
2024/01/28 05:07:20;;;;;;;;;;;;;;;;;;5036599;28;20302;-24
2024/01/28 05:09:45;;;;;;;;;;;;;;;;;;5036358;28;20352;-24
2024/01/28 05:12:11;;;;;;;;;;;;;;;;;;5036271;28;19920;-24
2024/01/28 05:14:37;;;;;;;;;;;;;;;;;;5036606;28;19909;-24
2024/01/28 05:17:05;;;;;;;;;;;;;;;;;;5035342;28;19960;-24
2024/01/28 05:19:31;;;;;;;;;;;;;;;;;;5035971;28;20012;-24
2024/01/28 05:21:57;;;;;;;;;;;;;;;;;;5036132;28;20433;-24
2024/01/28 05:24:22;;;;;;;;;;;;;;;;;;5036102;28;20249;-24
2024/01/28 05:26:48;;;;;;;;;;;;;;;;;;5035073;28;19922;-23
2024/01/28 05:29:15;;;;;;;;;;;;;;;;;;5034979;28;19924;-24
2024/01/28 05:31:42;;;;;;;;;;;;;;;;;;5035992;28;19944;-24
2024/01/28 05:34:08;;;;;;;;;;;;;;;;;;5035940;28;19909;-24
2024/01/28 05:36:34;;;;;;;;;;;;;;;;;;5036175;28;20406;-24
2024/01/28 05:39:00;;;;;;;;;;;;;;;;;;5035860;28;19912;-24
2024/01/28 05:41:26;;;;;;;;;;;;;;;;;;5036142;28;19912;-24
2024/01/28 05:43:52;;;;;;;;;;;;;;;;;;5035740;28;19909;-24
2024/01/28 05:46:18;;;;;;;;;;;;;;;;;;5036120;28;19924;-24
2024/01/28 05:48:44;;;;;;;;;;;;;;;;;;5036141;28;20232;-24
2024/01/28 05:51:10;;;;;;;;;;;;;;;;;;5035647;28;19948;-24
2024/01/28 05:53:36;;;;;;;;;;;;;;;;;;5035826;28;20351;-24
2024/01/28 05:56:03;;;;;;;;;;;;;;;;;;5034565;28;19959;-24
2024/01/28 05:58:30;;;;;;;;;;;;;;;;;;5035788;28;20302;-24
2024/01/28 06:00:58;;;;;;;;;;;;;;;;;;5035516;28;20339;-24
2024/01/28 06:03:24;;;;;;;;;;;;;;;;;;5035193;28;20008;-24
2024/01/28 06:05:50;;;;;;;;;;;;;;;;;;5035664;28;19953;-24
2024/01/28 06:08:16;;;;;;;;;;;;;;;;;;5035395;28;19975;-24
2024/01/28 06:10:42;;;;;;;;;;;;;;;;;;5035298;28;20285;-24
2024/01/28 06:13:08;;;;;;;;;;;;;;;;;;5035438;28;19909;-24
2024/01/28 06:15:34;;;;;;;;;;;;;;;;;;5035226;28;19971;-24
2024/01/28 06:18:01;;;;;;;;;;;;;;;;;;5035428;28;19996;-24
2024/01/28 06:20:27;;;;;;;;;;;;;;;;;;5035151;28;19910;-24
2024/01/28 06:22:53;;;;;;;;;;;;;;;;;;5035725;28;19909;-24
2024/01/28 06:25:19;;;;;;;;;;;;;;;;;;5035121;28;19963;-24
2024/01/28 06:27:45;;;;;;;;;;;;;;;;;;5035306;28;19909;-23
2024/01/28 06:30:11;;;;;;;;;;;;;;;;;;5034260;28;19913;-24
2024/01/28 06:32:37;;;;;;;;;;;;;;;;;;5034878;28;19909;-25
2024/01/28 06:35:03;;;;;;;;;;;;;;;;;;5033971;28;19909;-24
2024/01/28 06:37:29;;;;;;;;;;;;;;;;;;5035131;28;19909;-24
2024/01/28 06:39:55;;;;;;;;;;;;;;;;;;5034854;28;19917;-24
2024/01/28 06:42:21;;;;;;;;;;;;;;;;;;5034981;28;19909;-24
2024/01/28 06:44:47;;;;;;;;;;;;;;;;;;5035075;28;19909;-24
2024/01/28 06:47:13;;;;;;;;;;;;;;;;;;5034835;28;19916;-24
2024/01/28 06:49:39;;;;;;;;;;;;;;;;;;5034970;28;19913;-24
2024/01/28 06:52:05;;;;;;;;;;;;;;;;;;5033744;28;19909;-24
2024/01/28 06:54:31;;;;;;;;;;;;;;;;;;5033743;28;19921;-24
2024/01/28 06:56:57;;;;;;;;;;;;;;;;;;5033757;28;19909;-24
2024/01/28 06:59:23;;;;;;;;;;;;;;;;;;5034687;28;19916;-24
2024/01/28 07:01:49;;;;;;;;;;;;;;;;;;5033629;28;19915;-24
2024/01/28 07:04:15;;;;;;;;;;;;;;;;;;5034404;28;20008;-24
2024/01/28 07:06:41;;;;;;;;;;;;;;;;;;5034539;28;19909;-24
2024/01/28 07:09:08;;;;;;;;;;;;;;;;;;5034488;28;20257;-24
2024/01/28 07:11:34;;;;;;;;;;;;;;;;;;5034631;28;20008;-24
2024/01/28 07:14:00;;;;;;;;;;;;;;;;;;5034540;28;19944;-23
2024/01/28 07:16:26;;;;;;;;;;;;;;;;;;5034465;28;20337;-24
2024/01/28 07:18:52;;;;;;;;;;;;;;;;;;5034493;28;19909;-24
2024/01/28 07:21:18;;;;;;;;;;;;;;;;;;5034760;28;19913;-24
2024/01/28 07:23:44;;;;;;;;;;;;;;;;;;5034415;28;20055;-24
2024/01/28 07:26:10;;;;;;;;;;;;;;;;;;5034424;28;19956;-24
2024/01/28 07:28:36;;;;;;;;;;;;;;;;;;5034340;28;19932;-24
2024/01/28 07:31:02;;;;;;;;;;;;;;;;;;5034353;28;20345;-24
2024/01/28 07:33:28;;;;;;;;;;;;;;;;;;5034439;28;19939;-24
2024/01/28 07:35:54;;;;;;;;;;;;;;;;;;5034343;28;20315;-24
2024/01/28 07:38:20;;;;;;;;;;;;;;;;;;5034645;28;20000;-24
2024/01/28 07:40:46;;;;;;;;;;;;;;;;;;5034337;28;19909;-25
2024/01/28 07:43:12;;;;;;;;;;;;;;;;;;5036770;28;19940;-24
2024/01/28 07:45:38;;;;;;;;;;;;;;;;;;5038044;28;19909;-24
2024/01/28 07:48:04;;;;;;;;;;;;;;;;;;5036984;28;19910;-24
2024/01/28 07:50:30;;;;;;;;;;;;;;;;;;5037888;28;19978;-24
2024/01/28 07:52:56;;;;;;;;;;;;;;;;;;5036859;28;19909;-24
2024/01/28 07:55:22;;;;;;;;;;;;;;;;;;5037859;28;19916;-24
2024/01/28 07:57:48;;;;;;;;;;;;;;;;;;5038041;28;20351;-24
2024/01/28 08:00:14;;;;;;;;;;;;;;;;;;5037761;28;19917;-24
2024/01/28 08:02:40;;;;;;;;;;;;;;;;;;5037667;28;19924;-24
2024/01/28 08:05:06;;;;;;;;;;;;;;;;;;5037952;28;19909;-24
2024/01/28 08:07:32;;;;;;;;;;;;;;;;;;5037922;28;19913;-24
2024/01/28 08:09:58;;;;;;;;;;;;;;;;;;5038058;28;19913;-24
2024/01/28 08:12:24;;;;;;;;;;;;;;;;;;5037523;28;20341;-24
2024/01/28 08:14:50;;;;;;;;;;;;;;;;;;5037792;28;19979;-24
2024/01/28 08:17:16;;;;;;;;;;;;;;;;;;5036499;28;20293;-24
2024/01/28 08:19:42;;;;;;;;;;;;;;;;;;5037414;28;19910;-24
2024/01/28 08:22:08;;;;;;;;;;;;;;;;;;5037268;28;19916;-24
2024/01/28 08:24:34;;;;;;;;;;;;;;;;;;5037308;28;20237;-26
2024/01/28 08:27:00;;;;;;;;;;;;;;;;;;5037475;28;19920;-30
2024/01/28 08:29:26;;;;;;;;;;;;;;;;;;5037131;28;19913;-28
2024/01/28 08:31:52;;;;;;;;;;;;;;;;;;5037345;28;19909;-27
2024/01/28 08:34:18;;;;;;;;;;;;;;;;;;5037133;28;19913;-32
2024/01/28 08:36:44;;;;;;;;;;;;;;;;;;5037097;28;19974;-26
2024/01/28 08:39:10;;;;;;;;;;;;;;;;;;5037032;28;19956;-23
2024/01/28 08:41:36;;;;;;;;;;;;;;;;;;5036981;28;20011;-26
2024/01/28 08:44:02;;;;;;;;;;;;;;;;;;5036836;28;19915;-25
2024/01/28 08:46:28;;;;;;;;;;;;;;;;;;5036908;28;19996;-29
2024/01/28 08:48:54;;;;;;;;;;;;;;;;;;5037122;28;19971;-30
2024/01/28 08:51:20;;;;;;;;;;;;;;;;;;5037093;28;19913;-25
2024/01/28 08:53:46;;;;;;;;;;;;;;;;;;5035978;28;19913;-28
2024/01/28 08:56:12;;;;;;;;;;;;;;;;;;5036668;28;19921;-27
2024/01/28 08:58:38;;;;;;;;;;;;;;;;;;5036676;28;19909;-27
2024/01/28 09:01:05;;;;;;;;;;;;;;;;;;5036906;28;19960;-26
2024/01/28 09:03:31;;;;;;;;;;;;;;;;;;5036336;28;19928;-30
2024/01/28 09:05:57;;;;;;;;;;;;;;;;;;5035845;28;20008;-27
2024/01/28 09:08:23;;;;;;;;;;;;;;;;;;5036430;28;19949;-26
2024/01/28 09:10:49;;;;;;;;;;;;;;;;;;5036347;28;19999;-25
2024/01/28 09:13:15;;;;;;;;;;;;;;;;;;5036437;28;20248;-25
2024/01/28 09:15:41;;;;;;;;;;;;;;;;;;5036596;28;19909;-25
2024/01/28 09:18:07;;;;;;;;;;;;;;;;;;5036577;28;20375;-29
2024/01/28 09:20:33;;;;;;;;;;;;;;;;;;5036499;28;19970;-25
2024/01/28 09:22:59;;;;;;;;;;;;;;;;;;5036178;28;19909;-27
2024/01/28 09:25:28;;;;;;;;;;;;;;;;;;5036164;28;19947;-29
2024/01/28 09:27:55;;;;;;;;;;;;;;;;;;5036171;28;20247;-27
2024/01/28 09:30:21;;;;;;;;;;;;;;;;;;5036592;28;19990;-28
2024/01/28 09:32:47;;;;;;;;;;;;;;;;;;5035006;28;19962;-31
2024/01/28 09:35:13;;;;;;;;;;;;;;;;;;5035956;28;19919;-27
2024/01/28 09:37:39;;;;;;;;;;;;;;;;;;5036671;28;19909;-25
2024/01/28 09:40:05;;;;;;;;;;;;;;;;;;5035886;28;19913;-29
2024/01/28 09:42:31;;;;;;;;;;;;;;;;;;5035833;28;19916;-31
2024/01/28 09:44:57;;;;;;;;;;;;;;;;;;5035798;28;19909;-27
2024/01/28 09:47:23;;;;;;;;;;;;;;;;;;5035817;28;19924;-29
2024/01/28 09:49:49;;;;;;;;;;;;;;;;;;5035667;28;20297;-28
2024/01/28 09:52:16;;;;;;;;;;;;;;;;;;5035548;28;19909;-27
2024/01/28 09:54:44;;;;;;;;;;;;;;;;;;5035637;28;19909;-27
2024/01/28 09:57:10;;;;;;;;;;;;;;;;;;5035534;28;19931;-25
2024/01/28 09:59:36;;;;;;;;;;;;;;;;;;5035514;28;20348;-30
2024/01/28 10:02:03;;;;;;;;;;;;;;;;;;5035712;28;19913;-25
2024/01/28 10:04:29;;;;;;;;;;;;;;;;;;5034859;28;19925;-26
2024/01/28 10:06:57;;;;;;;;;;;;;;;;;;5035203;28;20342;-25
2024/01/28 10:09:23;;;;;;;;;;;;;;;;;;5035558;28;19913;-24
2024/01/28 10:11:49;;;;;;;;;;;;;;;;;;5034359;28;19920;-30
2024/01/28 10:14:15;;;;;;;;;;;;;;;;;;5035222;28;19940;-28
2024/01/28 10:16:44;;;;;;;;;;;;;;;;;;5035507;28;19992;-30
2024/01/28 10:19:10;;;;;;;;;;;;;;;;;;5035211;28;19963;-24
2024/01/28 10:21:36;;;;;;;;;;;;;;;;;;5035158;28;20000;-30
2024/01/28 10:24:02;;;;;;;;;;;;;;;;;;5035033;28;19910;-23
2024/01/28 10:26:28;;;;;;;;;;;;;;;;;;5035030;28;20004;-28
2024/01/28 10:28:54;;;;;;;;;;;;;;;;;;5035221;28;19917;-30
2024/01/28 10:31:22;;;;;;;;;;;;;;;;;;5035259;28;20340;-30
2024/01/28 10:33:48;;;;;;;;;;;;;;;;;;5034869;28;19917;-28
2024/01/28 10:36:14;;;;;;;;;;;;;;;;;;5034878;28;19909;-29
2024/01/28 10:38:40;;;;;;;;;;;;;;;;;;5034922;28;19920;-26
2024/01/28 10:41:06;;;;;;;;;;;;;;;;;;5035369;28;19959;-27
2024/01/28 10:43:32;;;;;;;;;;;;;;;;;;5034755;28;20344;-32
2024/01/28 10:45:58;;;;;;;;;;;;;;;;;;5034785;28;19999;-30
2024/01/28 10:48:24;;;;;;;;;;;;;;;;;;5034773;28;19909;-31
2024/01/28 10:50:50;;;;;;;;;;;;;;;;;;5034659;28;20027;-25
2024/01/28 10:53:16;;;;;;;;;;;;;;;;;;5034948;28;20014;-25
2024/01/28 10:55:42;;;;;;;;;;;;;;;;;;5034721;28;19920;-26
2024/01/28 10:58:08;;;;;;;;;;;;;;;;;;5034915;28;19909;-27
2024/01/28 11:00:34;;;;;;;;;;;;;;;;;;5033609;28;19971;-31
2024/01/28 11:03:00;;;;;;;;;;;;;;;;;;5034543;28;20000;-30
2024/01/28 11:05:26;;;;;;;;;;;;;;;;;;5034894;28;20292;-29
2024/01/28 11:07:54;;;;;;;;;;;;;;;;;;5034554;28;20375;-28
2024/01/28 11:10:20;;;;;;;;;;;;;;;;;;5034729;28;19928;-25
2024/01/28 11:12:46;;;;;;;;;;;;;;;;;;5034446;28;19909;-30
2024/01/28 11:15:15;;;;;;;;;;;;;;;;;;5034734;28;19979;-28
2024/01/28 11:17:41;;;;;;;;;;;;;;;;;;5037383;28;19939;-28
2024/01/28 11:20:07;;;;;;;;;;;;;;;;;;5038745;28;19995;-28
2024/01/28 11:22:33;;;;;;;;;;;;;;;;;;5038391;28;19973;-25
2024/01/28 11:24:59;;;;;;;;;;;;;;;;;;5038470;28;19982;-33
2024/01/28 11:27:25;;;;;;;;;;;;;;;;;;5038673;28;19909;-32
2024/01/28 11:29:51;;;;;;;;;;;;;;;;;;5038507;28;19974;-32
2024/01/28 11:32:18;;;;;;;;;;;;;;;;;;5038240;28;19909;-34
2024/01/28 11:34:45;;;;;;;;;;;;;;;;;;5038232;28;19920;-28
2024/01/28 11:37:11;;;;;;;;;;;;;;;;;;5037178;28;20009;-31
2024/01/28 11:39:37;;;;;;;;;;;;;;;;;;5038366;28;19956;-32
2024/01/28 11:42:03;;;;;;;;;;;;;;;;;;5038318;28;19914;-31
2024/01/28 11:44:29;;;;;;;;;;;;;;;;;;5038037;28;20256;-28
2024/01/28 11:46:55;;;;;;;;;;;;;;;;;;5038099;28;19909;-27
2024/01/28 11:49:21;;;;;;;;;;;;;;;;;;5037817;28;19962;-24
2024/01/28 11:51:47;;;;;;;;;;;;;;;;;;5037932;28;19971;-29
2024/01/28 11:54:13;;;;;;;;;;;;;;;;;;5038049;28;19909;-25
2024/01/28 11:56:39;;;;;;;;;;;;;;;;;;5036834;28;20030;-28
2024/01/28 11:59:06;;;;;;;;;;;;;;;;;;5037725;28;19909;-24
2024/01/28 12:01:32;;;;;;;;;;;;;;;;;;5037770;28;20236;-30
2024/01/28 12:03:58;;;;;;;;;;;;;;;;;;5037464;28;19932;-28
2024/01/28 12:06:24;;;;;;;;;;;;;;;;;;5037939;28;19917;-24
2024/01/28 12:08:50;;;;;;;;;;;;;;;;;;5037772;28;19913;-29
2024/01/28 12:11:16;;;;;;;;;;;;;;;;;;5037564;28;19909;-31
2024/01/28 12:13:43;;;;;;;;;;;;;;;;;;5037467;28;19948;-26
2024/01/28 12:16:09;;;;;;;;;;;;;;;;;;5037718;28;19932;-31
2024/01/28 12:18:35;;;;;;;;;;;;;;;;;;5037661;28;19959;-28
2024/01/28 12:21:01;;;;;;;;;;;;;;;;;;5037616;28;19913;-28
2024/01/28 12:23:27;;;;;;;;;;;;;;;;;;5037277;28;19952;-26
2024/01/28 12:25:53;;;;;;;;;;;;;;;;;;5037553;28;20350;-30
2024/01/28 12:28:19;;;;;;;;;;;;;;;;;;5036119;28;20340;-28
2024/01/28 12:30:45;;;;;;;;;;;;;;;;;;5037419;28;19921;-24
2024/01/28 12:33:11;;;;;;;;;;;;;;;;;;5037099;28;20313;-26
2024/01/28 12:35:37;;;;;;;;;;;;;;;;;;5037125;28;19909;-28
2024/01/28 12:38:03;;;;;;;;;;;;;;;;;;5037125;28;19909;-24
2024/01/28 12:40:29;;;;;;;;;;;;;;;;;;5037293;28;20348;-30
2024/01/28 12:42:55;;;;;;;;;;;;;;;;;;5036958;28;19909;-30
2024/01/28 12:45:21;;;;;;;;;;;;;;;;;;5036987;28;20204;-26
2024/01/28 12:47:47;;;;;;;;;;;;;;;;;;5037189;28;19909;-24
2024/01/28 12:50:13;;;;;;;;;;;;;;;;;;5036798;28;20019;-28
2024/01/28 12:52:39;;;;;;;;;;;;;;;;;;5035803;28;19909;-26
2024/01/28 12:55:05;;;;;;;;;;;;;;;;;;5036753;28;20361;-26
2024/01/28 12:57:31;;;;;;;;;;;;;;;;;;5036969;28;19916;-24
2024/01/28 12:59:58;;;;;;;;;;;;;;;;;;5036899;28;19910;-26
2024/01/28 13:02:24;;;;;;;;;;;;;;;;;;5036374;28;20337;-31
2024/01/28 13:04:50;;;;;;;;;;;;;;;;;;5036861;28;19921;-30
2024/01/28 13:07:16;;;;;;;;;;;;;;;;;;5036747;28;19979;-33
2024/01/28 13:09:42;;;;;;;;;;;;;;;;;;5036449;28;19964;-31
2024/01/28 13:12:08;;;;;;;;;;;;;;;;;;5036366;28;19910;-24
2024/01/28 13:14:34;;;;;;;;;;;;;;;;;;5036419;28;19908;-28
2024/01/28 13:17:00;;;;;;;;;;;;;;;;;;5036656;28;19913;-29
2024/01/28 13:19:26;;;;;;;;;;;;;;;;;;5036316;28;20007;-26
2024/01/28 13:21:52;;;;;;;;;;;;;;;;;;5036243;28;19935;-26
2024/01/28 13:24:18;;;;;;;;;;;;;;;;;;5036250;28;19925;-27
2024/01/28 13:26:44;;;;;;;;;;;;;;;;;;5035219;28;19940;-26
2024/01/28 13:29:10;;;;;;;;;;;;;;;;;;5036375;28;19917;-28
2024/01/28 13:31:36;;;;;;;;;;;;;;;;;;5036146;28;19909;-28
2024/01/28 13:34:02;;;;;;;;;;;;;;;;;;5035937;28;19996;-31
2024/01/28 13:36:28;;;;;;;;;;;;;;;;;;5036018;28;19916;-27
2024/01/28 13:38:54;;;;;;;;;;;;;;;;;;5035778;28;20336;-29
2024/01/28 13:41:20;;;;;;;;;;;;;;;;;;5036079;28;19913;-28
2024/01/28 13:43:46;;;;;;;;;;;;;;;;;;5036050;28;19975;-28
2024/01/28 13:46:12;;;;;;;;;;;;;;;;;;5035801;28;19988;-25
2024/01/28 13:48:38;;;;;;;;;;;;;;;;;;5036013;28;19917;-28
2024/01/28 13:51:04;;;;;;;;;;;;;;;;;;5035880;28;19924;-25
2024/01/28 13:53:30;;;;;;;;;;;;;;;;;;5036122;28;19913;-32
2024/01/28 13:55:56;;;;;;;;;;;;;;;;;;5035662;28;19920;-32
2024/01/28 13:58:22;;;;;;;;;;;;;;;;;;5035545;28;19997;-33
2024/01/28 14:00:48;;;;;;;;;;;;;;;;;;5035531;28;19968;-31
2024/01/28 14:03:14;;;;;;;;;;;;;;;;;;5035252;28;19928;-24
2024/01/28 14:05:41;;;;;;;;;;;;;;;;;;5035469;28;20260;-26
2024/01/28 14:08:07;;;;;;;;;;;;;;;;;;5035709;28;19920;-30
2024/01/28 14:10:33;;;;;;;;;;;;;;;;;;5036282;28;20217;-30
2024/01/28 14:12:59;;;;;;;;;;;;;;;;;;5035309;28;19916;-27
2024/01/28 14:15:25;;;;;;;;;;;;;;;;;;5035761;28;19914;-27
2024/01/28 14:17:51;;;;;;;;;;;;;;;;;;5035220;28;19909;-25
2024/01/28 14:20:17;;;;;;;;;;;;;;;;;;5035225;28;20259;-28
2024/01/28 14:22:43;;;;;;;;;;;;;;;;;;5035126;28;19913;-26
2024/01/28 14:25:09;;;;;;;;;;;;;;;;;;5035099;28;19963;-27
2024/01/28 14:27:35;;;;;;;;;;;;;;;;;;5035115;28;20248;-29
2024/01/28 14:30:01;;;;;;;;;;;;;;;;;;5034923;28;19913;-28
2024/01/28 14:32:27;;;;;;;;;;;;;;;;;;5035213;28;19909;-26
2024/01/28 14:34:53;;;;;;;;;;;;;;;;;;5035270;28;19959;-27
2024/01/28 14:37:19;;;;;;;;;;;;;;;;;;5035222;28;19916;-33
2024/01/28 14:39:45;;;;;;;;;;;;;;;;;;5035197;28;19952;-28
2024/01/28 14:42:11;;;;;;;;;;;;;;;;;;5034871;28;19910;-31
2024/01/28 14:44:37;;;;;;;;;;;;;;;;;;5034918;28;19909;-30
2024/01/28 14:47:03;;;;;;;;;;;;;;;;;;5035348;28;20339;-29
2024/01/28 14:49:29;;;;;;;;;;;;;;;;;;5034995;28;20007;-24
2024/01/28 14:51:55;;;;;;;;;;;;;;;;;;5034355;28;19909;-26
2024/01/28 14:54:21;;;;;;;;;;;;;;;;;;5033754;28;20351;-30
2024/01/28 14:56:47;;;;;;;;;;;;;;;;;;5034736;28;20255;-32
2024/01/28 14:59:13;;;;;;;;;;;;;;;;;;5034728;28;19909;-26
2024/01/28 15:01:39;;;;;;;;;;;;;;;;;;5034715;28;19909;-26
2024/01/28 15:04:05;;;;;;;;;;;;;;;;;;5034712;28;20349;-28
2024/01/28 15:06:31;;;;;;;;;;;;;;;;;;5034993;28;20352;-25
2024/01/28 15:08:57;;;;;;;;;;;;;;;;;;5034564;28;19917;-27
2024/01/28 15:11:23;;;;;;;;;;;;;;;;;;5034927;28;20324;-30
2024/01/28 15:13:49;;;;;;;;;;;;;;;;;;5034590;28;19917;-28
2024/01/28 15:16:15;;;;;;;;;;;;;;;;;;5034577;28;19913;-28
2024/01/28 15:18:42;;;;;;;;;;;;;;;;;;5034581;28;19917;-25
2024/01/28 15:21:08;;;;;;;;;;;;;;;;;;5034757;28;20018;-29
2024/01/28 15:23:37;;;;;;;;;;;;;;;;;;5034405;28;19917;-27
2024/01/28 15:26:03;;;;;;;;;;;;;;;;;;5034467;28;19920;-29
2024/01/28 15:28:29;;;;;;;;;;;;;;;;;;5034470;28;19909;-28
2024/01/28 15:30:55;;;;;;;;;;;;;;;;;;5034604;28;19917;-25
2024/01/28 15:33:21;;;;;;;;;;;;;;;;;;5034353;28;19960;-28
2024/01/28 15:35:47;;;;;;;;;;;;;;;;;;5034399;28;19910;-24
2024/01/28 15:38:15;;;;;;;;;;;;;;;;;;5034394;28;20237;-27
2024/01/28 15:40:42;;;;;;;;;;;;;;;;;;5034366;28;19909;-27
2024/01/28 15:43:08;;;;;;;;;;;;;;;;;;5034486;28;19932;-28
2024/01/28 15:45:34;;;;;;;;;;;;;;;;;;5034278;28;19909;-30
2024/01/28 15:48:01;;;;;;;;;;;;;;;;;;5033317;28;20386;-27
2024/01/28 15:50:27;;;;;;;;;;;;;;;;;;5034150;28;19944;-26
2024/01/28 15:52:53;;;;;;;;;;;;;;;;;;5034193;28;20023;-27
2024/01/28 15:55:18;;;;;;;;;;;;;;;;;;5034257;28;19913;-24
2024/01/28 15:57:44;;;;;;;;;;;;;;;;;;5034187;28;20230;-27
2024/01/28 16:00:11;;;;;;;;;;;;;;;;;;5034194;28;19919;-24
2024/01/28 16:02:37;;;;;;;;;;;;;;;;;;5035100;28;19927;-24
2024/01/28 16:05:03;;;;;;;;;;;;;;;;;;5037999;28;19999;-28
2024/01/28 16:07:29;;;;;;;;;;;;;;;;;;5037684;28;19920;-24
2024/01/28 16:09:56;;;;;;;;;;;;;;;;;;5037599;28;19924;-24
2024/01/28 16:12:22;;;;;;;;;;;;;;;;;;5037605;28;19952;-31
2024/01/28 16:14:48;;;;;;;;;;;;;;;;;;5037551;28;19917;-26
2024/01/28 16:17:18;;;;;;;;;;;;;;;;;;5037755;28;19979;-25
2024/01/28 16:19:44;;;;;;;;;;;;;;;;;;5037525;28;19915;-26
2024/01/28 16:22:10;;;;;;;;;;;;;;;;;;5037334;28;20050;-31
2024/01/28 16:24:36;;;;;;;;;;;;;;;;;;5037385;28;19909;-27
2024/01/28 16:27:02;;;;;;;;;;;;;;;;;;5037623;28;19988;-29
2024/01/28 16:29:27;;;;;;;;;;;;;;;;;;5037238;28;20410;-29
2024/01/28 16:31:53;;;;;;;;;;;;;;;;;;5037421;28;19981;-26
2024/01/28 16:34:19;;;;;;;;;;;;;;;;;;5037432;28;19944;-27
2024/01/28 16:36:45;;;;;;;;;;;;;;;;;;5037168;28;19920;-31